createdAt,value
2018-04-17T00:01:33.319Z,74.52
2018-04-17T00:04:00.863Z,74.36
2018-04-17T00:06:28.418Z,74.03
2018-04-17T00:08:56.137Z,73.73
2018-04-17T00:11:23.664Z,73.48
2018-04-17T00:13:51.199Z,73.24
2018-04-17T00:16:19.010Z,73.21
2018-04-17T00:18:46.561Z,73.30
2018-04-17T00:21:14.111Z,73.35
2018-04-17T00:23:41.691Z,73.51
2018-04-17T00:26:09.239Z,73.68
2018-04-17T00:28:36.794Z,73.96
2018-04-17T00:31:04.376Z,73.93
2018-04-17T00:33:31.944Z,73.62
2018-04-17T00:35:59.491Z,73.21
2018-04-17T00:38:27.105Z,73.17
2018-04-17T00:40:54.666Z,73.03
2018-04-17T00:43:22.211Z,73.34
2018-04-17T00:45:50.024Z,73.73
2018-04-17T00:48:17.566Z,74.08
2018-04-17T00:50:45.123Z,74.33
2018-04-17T00:53:24.667Z,74.21
2018-04-17T00:55:52.218Z,73.89
2018-04-17T00:58:19.768Z,73.74
2018-04-17T01:00:47.368Z,73.47
2018-04-17T01:03:14.910Z,72.33
2018-04-17T01:05:42.447Z,71.75
2018-04-17T01:08:10.160Z,72.12
2018-04-17T01:10:37.701Z,72.93
2018-04-17T01:13:05.253Z,73.40
2018-04-17T01:15:32.843Z,72.92
2018-04-17T01:18:00.388Z,73.21
2018-04-17T01:20:27.918Z,73.80
2018-04-17T01:22:55.632Z,69.78
2018-04-17T01:25:23.181Z,71.58
2018-04-17T01:27:50.732Z,72.92
2018-04-17T01:30:18.295Z,74.35
2018-04-17T01:32:45.844Z,74.08
2018-04-17T01:35:14.065Z,73.82
2018-04-17T01:37:41.668Z,74.32
2018-04-17T01:40:09.215Z,73.30
2018-04-17T01:42:36.776Z,73.94
2018-04-17T01:45:04.482Z,76.05
2018-04-17T01:47:32.032Z,75.83
2018-04-17T01:49:59.594Z,76.28
2018-04-17T01:52:27.157Z,75.72
2018-04-17T01:54:54.711Z,76.90
2018-04-17T01:57:22.258Z,77.41
2018-04-17T01:59:49.857Z,77.66
2018-04-17T02:02:17.407Z,76.44
2018-04-17T02:04:44.959Z,76.27
2018-04-17T02:07:12.674Z,76.95
2018-04-17T02:09:40.222Z,77.16
2018-04-17T02:12:07.763Z,78.10
2018-04-17T02:14:35.359Z,79.22
2018-04-17T02:17:02.913Z,78.71
2018-04-17T02:19:30.460Z,78.26
2018-04-17T02:21:58.059Z,77.25
2018-04-17T02:24:25.600Z,76.96
2018-04-17T02:26:53.149Z,76.96
2018-04-17T02:29:20.713Z,76.00
2018-04-17T02:31:48.263Z,76.67
2018-04-17T02:34:15.867Z,75.99
2018-04-17T02:36:43.419Z,76.50
2018-04-17T02:39:10.963Z,76.94
2018-04-17T02:41:38.556Z,77.70
2018-04-17T02:44:06.119Z,77.14
2018-04-17T02:46:33.667Z,77.42
2018-04-17T02:49:01.539Z,78.23
2018-04-17T02:51:29.091Z,78.90
2018-04-17T02:53:56.636Z,78.73
2018-04-17T02:56:24.325Z,78.72
2018-04-17T02:58:51.872Z,78.42
2018-04-17T03:01:19.416Z,77.82
2018-04-17T03:03:46.991Z,75.74
2018-04-17T03:06:14.548Z,75.23
2018-04-17T03:08:42.107Z,75.92
2018-04-17T03:11:09.676Z,75.19
2018-04-17T03:13:37.223Z,72.24
2018-04-17T03:16:04.768Z,67.78
2018-04-17T03:18:32.342Z,68.81
2018-04-17T03:20:59.892Z,73.28
2018-04-17T03:23:27.437Z,75.22
2018-04-17T03:25:55.197Z,75.36
2018-04-17T03:28:22.776Z,76.27
2018-04-17T03:30:50.317Z,76.43
2018-04-17T03:33:17.893Z,76.79
2018-04-17T03:35:45.448Z,77.03
2018-04-17T03:38:12.992Z,77.25
2018-04-17T03:40:40.769Z,77.58
2018-04-17T03:43:08.312Z,77.29
2018-04-17T03:45:35.869Z,77.03
2018-04-17T03:48:03.447Z,77.21
2018-04-17T03:50:30.988Z,77.58
2018-04-17T03:52:58.541Z,77.79
2018-04-17T03:55:26.267Z,77.61
2018-04-17T03:57:53.838Z,77.14
2018-04-17T04:00:21.417Z,77.05
2018-04-17T04:02:49.007Z,77.49
2018-04-17T04:05:16.568Z,77.88
2018-04-17T04:07:44.125Z,77.72
2018-04-17T04:10:11.845Z,78.03
2018-04-17T04:12:39.392Z,78.16
2018-04-17T04:15:06.965Z,78.24
2018-04-17T04:17:46.540Z,78.16
2018-04-17T04:20:27.136Z,78.02
2018-04-17T04:23:06.341Z,77.23
2018-04-17T04:28:45.413Z,77.13
2018-04-17T04:31:12.961Z,77.29
2018-04-17T04:33:40.524Z,77.41
2018-04-17T04:36:08.079Z,77.39
2018-04-17T04:38:35.636Z,77.42
2018-04-17T04:41:03.221Z,77.44
2018-04-17T04:43:30.771Z,77.45
2018-04-17T04:45:58.364Z,77.52
2018-04-17T04:48:26.087Z,77.47
2018-04-17T04:50:53.673Z,77.31
2018-04-17T04:53:21.215Z,76.97
2018-04-17T04:55:48.994Z,76.56
2018-04-17T04:58:16.534Z,76.31
2018-04-17T05:00:44.092Z,75.75
2018-04-17T05:03:11.824Z,75.42
2018-04-17T05:05:39.381Z,73.87
2018-04-17T05:08:06.931Z,72.82
2018-04-17T05:10:34.808Z,72.01
2018-04-17T05:13:02.362Z,70.99
2018-04-17T05:15:29.912Z,69.81
2018-04-17T05:17:57.515Z,69.83
2018-04-17T05:20:25.080Z,69.41
2018-04-17T05:22:52.633Z,68.80
2018-04-17T05:25:20.372Z,68.01
2018-04-17T05:27:47.933Z,67.76
2018-04-17T05:30:15.503Z,64.86
2018-04-17T05:32:43.183Z,62.11
2018-04-17T05:35:10.737Z,57.21
2018-04-17T05:37:38.282Z,55.13
2018-04-17T05:40:07.114Z,55.22
2018-04-17T05:42:34.692Z,55.68
2018-04-17T05:45:02.236Z,56.07
2018-04-17T05:47:29.837Z,54.86
2018-04-17T05:49:57.391Z,53.57
2018-04-17T05:52:24.944Z,53.47
2018-04-17T05:54:52.643Z,54.04
2018-04-17T05:57:20.195Z,56.26
2018-04-17T05:59:47.740Z,56.63
2018-04-17T06:02:15.324Z,56.69
2018-04-17T06:04:42.873Z,56.71
2018-04-17T06:07:10.438Z,56.59
2018-04-17T06:09:38.038Z,52.93
2018-04-17T06:12:05.584Z,53.01
2018-04-17T06:14:33.148Z,52.03
2018-04-17T06:17:00.738Z,53.55
2018-04-17T06:19:28.294Z,54.07
2018-04-17T06:21:55.840Z,55.18
2018-04-17T06:24:23.440Z,55.34
2018-04-17T06:26:50.999Z,54.71
2018-04-17T06:29:18.545Z,53.35
2018-04-17T06:31:46.194Z,52.71
2018-04-17T06:34:13.745Z,52.49
2018-04-17T06:36:41.299Z,52.56
2018-04-17T06:39:08.864Z,51.87
2018-04-17T06:41:36.415Z,51.46
2018-04-17T06:44:03.995Z,51.06
2018-04-17T06:46:31.678Z,52.58
2018-04-17T06:48:59.245Z,53.66
2018-04-17T06:51:26.849Z,53.44
2018-04-17T06:53:54.513Z,52.95
2018-04-17T06:56:22.059Z,52.95
2018-04-17T06:58:49.637Z,51.53
2018-04-17T07:01:17.375Z,52.48
2018-04-17T07:03:44.929Z,52.02
2018-04-17T07:06:12.496Z,51.57
2018-04-17T07:08:40.096Z,52.02
2018-04-17T07:11:07.645Z,51.60
2018-04-17T07:13:35.213Z,51.18
2018-04-17T07:16:02.829Z,48.75
2018-04-17T07:18:30.372Z,47.81
2018-04-17T07:20:57.915Z,45.54
2018-04-17T07:23:25.480Z,45.54
2018-04-17T07:25:53.027Z,46.14
2018-04-17T07:28:20.582Z,45.47
2018-04-17T07:30:48.128Z,45.61
2018-04-17T07:34:55.737Z,47.09
2018-04-17T07:37:23.293Z,45.19
2018-04-17T07:42:43.942Z,43.80
2018-04-17T07:45:11.537Z,43.53
2018-04-17T07:47:39.123Z,44.17
2018-04-17T07:50:07.003Z,43.46
2018-04-17T07:52:34.561Z,44.42
2018-04-17T07:55:02.134Z,43.53
2018-04-17T07:57:29.873Z,42.11
2018-04-17T07:59:57.426Z,42.04
2018-04-17T08:02:24.975Z,42.50
2018-04-17T08:04:52.567Z,42.65
2018-04-17T08:07:20.111Z,42.03
2018-04-17T08:09:47.682Z,42.36
2018-04-17T08:12:15.272Z,41.11
2018-04-17T08:14:42.826Z,40.25
2018-04-17T08:17:10.392Z,41.06
2018-04-17T08:19:37.964Z,41.48
2018-04-17T08:22:05.517Z,41.33
2018-04-17T08:24:33.080Z,41.82
2018-04-17T08:27:00.941Z,43.89
2018-04-17T08:29:28.493Z,42.95
2018-04-17T08:31:56.039Z,42.92
2018-04-17T08:34:23.731Z,43.57
2018-04-17T08:36:51.289Z,43.70
2018-04-17T08:39:18.879Z,43.01
2018-04-17T08:41:46.601Z,43.15
2018-04-17T08:44:14.173Z,43.42
2018-04-17T08:46:41.725Z,43.97
2018-04-17T08:49:09.314Z,43.93
2018-04-17T08:51:37.798Z,43.38
2018-04-17T08:54:05.353Z,42.71
2018-04-17T08:56:33.199Z,42.85
2018-04-17T08:59:00.749Z,42.97
2018-04-17T09:01:28.299Z,43.84
2018-04-17T09:03:56.030Z,43.22
2018-04-17T09:06:23.579Z,42.78
2018-04-17T09:08:51.138Z,42.50
2018-04-17T09:11:18.789Z,41.99
2018-04-17T09:13:46.366Z,42.61
2018-04-17T09:16:13.927Z,41.59
2018-04-17T09:18:41.508Z,42.93
2018-04-17T09:21:09.060Z,41.38
2018-04-17T09:23:36.631Z,41.79
2018-04-17T09:26:04.549Z,41.28
2018-04-17T09:28:32.109Z,41.35
2018-04-17T09:30:59.673Z,42.56
2018-04-17T09:33:27.483Z,41.17
2018-04-17T09:35:55.047Z,41.19
2018-04-17T09:38:22.596Z,41.83
2018-04-17T09:40:50.218Z,41.29
2018-04-17T09:43:17.788Z,41.92
2018-04-17T09:45:45.346Z,41.29
2018-04-17T09:48:13.887Z,40.13
2018-04-17T09:50:41.445Z,39.80
2018-04-17T09:53:08.998Z,39.53
2018-04-17T09:55:36.608Z,39.36
2018-04-17T09:58:04.156Z,38.88
2018-04-17T10:00:37.472Z,39.31
2018-04-17T10:03:05.017Z,39.16
2018-04-17T10:05:32.570Z,38.80
2018-04-17T10:08:00.239Z,40.01
2018-04-17T10:10:27.771Z,39.85
2018-04-17T10:12:55.319Z,39.09
2018-04-17T10:15:22.900Z,38.52
2018-04-17T10:17:50.460Z,39.09
2018-04-17T10:20:18.030Z,39.38
2018-04-17T10:22:45.601Z,38.20
2018-04-17T10:25:13.152Z,38.18
2018-04-17T10:27:40.696Z,37.52
2018-04-17T10:30:08.238Z,37.97
2018-04-17T10:32:35.789Z,36.57
2018-04-17T10:35:03.557Z,35.98
2018-04-17T10:37:31.100Z,36.34
2018-04-17T10:39:58.649Z,36.92
2018-04-17T10:42:26.340Z,35.45
2018-04-17T10:44:53.888Z,37.02
2018-04-17T10:47:21.449Z,36.81
2018-04-17T10:49:49.041Z,36.18
2018-04-17T10:52:16.599Z,35.33
2018-04-17T10:54:44.149Z,37.46
2018-04-17T10:57:11.722Z,36.81
2018-04-17T10:59:39.275Z,36.80
2018-04-17T11:02:06.865Z,37.01
2018-04-17T11:04:34.457Z,36.51
2018-04-17T11:07:02.006Z,37.11
2018-04-17T11:09:29.551Z,36.87
2018-04-17T11:11:57.145Z,36.02
2018-04-17T11:14:24.688Z,36.72
2018-04-17T11:16:52.235Z,35.61
2018-04-17T11:19:19.836Z,36.50
2018-04-17T11:21:47.392Z,35.88
2018-04-17T11:24:14.991Z,35.39
2018-04-17T11:26:42.715Z,35.47
2018-04-17T11:29:10.320Z,34.63
2018-04-17T11:31:37.841Z,35.94
2018-04-17T11:34:05.416Z,35.11
2018-04-17T11:36:32.964Z,35.73
2018-04-17T11:39:07.228Z,36.32
2018-04-17T11:41:34.768Z,35.64
2018-04-17T11:44:02.318Z,36.41
2018-04-17T11:46:30.051Z,35.78
2018-04-17T11:48:57.596Z,35.48
2018-04-17T11:51:25.153Z,35.55
2018-04-17T11:53:52.840Z,37.01
2018-04-17T11:56:20.389Z,37.18
2018-04-17T11:58:47.936Z,36.19
2018-04-17T12:01:15.794Z,36.71
2018-04-17T12:03:43.342Z,37.58
2018-04-17T12:06:10.912Z,38.88
2018-04-17T12:08:38.800Z,39.61
2018-04-17T12:11:06.374Z,40.81
2018-04-17T12:13:33.945Z,41.54
2018-04-17T12:16:01.726Z,40.84
2018-04-17T12:18:29.269Z,41.71
2018-04-17T12:20:56.817Z,41.59
2018-04-17T12:23:24.408Z,42.06
2018-04-17T12:25:52.022Z,40.36
2018-04-17T12:28:19.535Z,40.45
2018-04-17T12:30:47.131Z,40.32
2018-04-17T12:33:14.681Z,40.42
2018-04-17T12:35:42.558Z,40.07
2018-04-17T12:38:10.115Z,40.30
2018-04-17T12:40:37.667Z,40.06
2018-04-17T12:43:05.261Z,40.34
2018-04-17T12:45:32.839Z,40.59
2018-04-17T12:48:00.383Z,41.03
2018-04-17T12:50:28.120Z,41.88
2018-04-17T12:52:55.706Z,42.39
2018-04-17T12:55:23.270Z,44.06
2018-04-17T12:57:50.843Z,44.56
2018-04-17T13:00:18.389Z,44.59
2018-04-17T13:02:45.940Z,45.07
2018-04-17T13:05:13.676Z,45.57
2018-04-17T13:07:41.247Z,45.54
2018-04-17T13:10:08.853Z,45.62
2018-04-17T13:12:36.424Z,46.32
2018-04-17T13:15:03.982Z,46.69
2018-04-17T13:17:31.541Z,45.33
2018-04-17T13:19:59.189Z,45.18
2018-04-17T13:22:26.745Z,44.64
2018-04-17T13:24:54.324Z,45.86
2018-04-17T13:27:22.036Z,46.83
2018-04-17T13:29:49.592Z,46.60
2018-04-17T13:32:17.150Z,46.49
2018-04-17T13:34:44.732Z,46.52
2018-04-17T13:37:12.298Z,46.65
2018-04-17T13:39:39.845Z,45.80
2018-04-17T13:42:07.449Z,45.82
2018-04-17T13:44:34.987Z,45.19
2018-04-17T13:47:02.539Z,45.30
2018-04-17T13:49:30.113Z,45.34
2018-04-17T13:51:57.657Z,44.33
2018-04-17T13:54:25.196Z,44.61
2018-04-17T13:56:52.825Z,43.88
2018-04-17T13:59:20.376Z,44.60
2018-04-17T14:01:47.954Z,44.51
2018-04-17T14:04:15.546Z,43.82
2018-04-17T14:06:43.097Z,44.12
2018-04-17T14:09:10.667Z,44.06
2018-04-17T14:11:38.364Z,44.27
2018-04-17T14:14:05.898Z,43.39
2018-04-17T14:16:33.436Z,43.69
2018-04-17T14:19:01.019Z,43.55
2018-04-17T14:21:28.588Z,44.30
2018-04-17T14:23:56.142Z,43.70
2018-04-17T14:26:23.708Z,44.10
2018-04-17T14:28:51.249Z,44.27
2018-04-17T14:31:18.807Z,44.88
2018-04-17T14:33:46.372Z,42.71
2018-04-17T14:36:13.937Z,43.00
2018-04-17T14:38:41.515Z,42.61
2018-04-17T14:41:09.086Z,45.42
2018-04-17T14:43:36.779Z,47.11
2018-04-17T14:46:04.349Z,48.81
2018-04-17T14:48:31.969Z,49.69
2018-04-17T14:50:59.554Z,50.30
2018-04-17T14:53:27.101Z,50.90
2018-04-17T14:55:54.846Z,50.59
2018-04-17T14:58:22.389Z,51.55
2018-04-17T15:00:49.940Z,52.16
2018-04-17T15:03:17.526Z,52.36
2018-04-17T15:05:45.126Z,52.78
2018-04-17T15:08:13.420Z,52.57
2018-04-17T15:10:41.006Z,53.16
2018-04-17T15:13:08.562Z,50.22
2018-04-17T15:15:36.114Z,49.58
2018-04-17T15:18:03.677Z,49.42
2018-04-17T15:20:31.237Z,48.49
2018-04-17T15:22:58.788Z,48.38
2018-04-17T15:25:26.682Z,48.37
2018-04-17T15:27:54.248Z,50.70
2018-04-17T15:30:21.801Z,51.10
2018-04-17T15:32:49.523Z,51.68
2018-04-17T15:35:17.094Z,51.57
2018-04-17T15:37:44.683Z,49.86
2018-04-17T15:40:12.273Z,50.62
2018-04-17T15:42:39.826Z,50.96
2018-04-17T15:45:07.394Z,53.39
2018-04-17T15:47:35.262Z,58.21
2018-04-17T15:50:02.844Z,60.35
2018-04-17T15:52:30.388Z,60.46
2018-04-17T15:54:57.979Z,61.36
2018-04-17T15:57:25.533Z,61.92
2018-04-17T15:59:53.092Z,63.29
2018-04-17T16:02:20.833Z,64.25
2018-04-17T16:04:48.377Z,66.21
2018-04-17T16:07:15.945Z,68.53
2018-04-17T16:09:43.983Z,70.20
2018-04-17T16:12:11.535Z,70.35
2018-04-17T16:14:39.166Z,71.96
2018-04-17T16:17:06.809Z,72.74
2018-04-17T16:19:34.405Z,73.85
2018-04-17T16:22:01.958Z,75.10
2018-04-17T16:24:29.768Z,76.64
2018-04-17T16:26:57.324Z,77.58
2018-04-17T16:29:24.886Z,78.63
2018-04-17T16:31:52.502Z,79.39
2018-04-17T16:34:20.100Z,79.47
2018-04-17T16:36:47.653Z,79.34
2018-04-17T16:39:15.313Z,78.25
2018-04-17T16:41:42.905Z,79.17
2018-04-17T16:44:10.473Z,79.34
2018-04-17T16:46:38.371Z,80.19
2018-04-17T16:49:05.971Z,80.88
2018-04-17T16:51:33.565Z,81.59
2018-04-17T16:54:01.307Z,79.96
2018-04-17T16:56:28.871Z,79.16
2018-04-17T16:58:56.449Z,80.15
2018-04-17T17:01:24.217Z,79.95
2018-04-17T17:03:51.795Z,80.50
2018-04-17T17:06:19.346Z,80.41
2018-04-17T17:08:47.117Z,79.34
2018-04-17T17:11:14.698Z,78.47
2018-04-17T17:13:42.283Z,77.05
2018-04-17T17:16:10.172Z,77.30
2018-04-17T17:18:37.743Z,77.55
2018-04-17T17:21:05.315Z,77.39
2018-04-17T17:23:32.921Z,77.24
2018-04-17T17:26:00.522Z,77.18
2018-04-17T17:28:28.159Z,76.36
2018-04-17T17:30:55.775Z,76.31
2018-04-17T17:33:23.378Z,76.27
2018-04-17T17:35:50.997Z,76.56
2018-04-17T17:38:18.612Z,75.68
2018-04-17T17:40:46.184Z,75.75
2018-04-17T17:43:13.860Z,76.69
2018-04-17T17:45:41.461Z,76.01
2018-04-17T17:48:09.033Z,76.52
2018-04-17T17:50:36.856Z,75.54
2018-04-17T17:53:04.493Z,74.74
2018-04-17T17:55:32.229Z,75.59
2018-04-17T17:57:59.884Z,74.59
2018-04-17T18:00:27.555Z,75.07
2018-04-17T18:02:55.133Z,75.39
2018-04-17T18:05:22.796Z,75.33
2018-04-17T18:07:50.413Z,75.12
2018-04-17T18:10:17.969Z,75.45
2018-04-17T18:12:46.376Z,75.69
2018-04-17T18:15:13.985Z,76.25
2018-04-17T18:17:41.616Z,76.75
2018-04-17T18:20:09.371Z,77.27
2018-04-17T18:22:36.987Z,77.47
2018-04-17T18:25:04.602Z,77.69
2018-04-17T18:27:32.560Z,78.07
2018-04-17T18:30:00.268Z,78.27
2018-04-17T18:32:27.892Z,78.29
2018-04-17T18:34:55.828Z,78.32
2018-04-17T18:37:23.446Z,78.50
2018-04-17T18:39:51.049Z,78.46
2018-04-17T18:42:19.040Z,78.44
2018-04-17T18:44:46.632Z,78.27
2018-04-17T18:47:14.234Z,78.31
2018-04-17T18:49:42.127Z,78.43
2018-04-17T18:52:09.747Z,78.53
2018-04-17T18:54:37.330Z,78.51
2018-04-17T18:57:04.999Z,78.57
2018-04-17T18:59:32.614Z,78.42
2018-04-17T19:02:00.195Z,78.34
2018-04-17T19:04:27.831Z,78.19
2018-04-17T19:06:55.432Z,78.17
2018-04-17T19:09:22.989Z,78.32
2018-04-17T19:11:50.602Z,78.38
2018-04-17T19:14:18.253Z,78.51
2018-04-17T19:16:45.839Z,78.68
2018-04-17T19:19:13.512Z,78.65
2018-04-17T19:21:41.133Z,78.64
2018-04-17T19:24:08.716Z,78.71
2018-04-17T19:26:36.453Z,78.98
2018-04-17T19:29:04.111Z,79.06
2018-04-17T19:31:31.724Z,79.11
2018-04-17T19:33:59.790Z,79.21
2018-04-17T19:36:27.412Z,79.29
2018-04-17T19:38:55.001Z,79.47
2018-04-17T19:41:22.645Z,79.47
2018-04-17T19:43:50.227Z,79.60
2018-04-17T19:46:17.795Z,79.61
2018-04-17T19:48:45.406Z,79.60
2018-04-17T19:51:12.982Z,79.75
2018-04-17T19:53:40.623Z,79.86
2018-04-17T19:56:08.539Z,79.80
2018-04-17T19:58:36.126Z,79.71
2018-04-17T20:01:03.713Z,79.79
2018-04-17T20:03:31.316Z,79.87
2018-04-17T20:05:58.905Z,79.91
2018-04-17T20:08:26.489Z,79.93
2018-04-17T20:10:54.106Z,79.82
2018-04-17T20:13:21.690Z,79.56
2018-04-17T20:15:49.267Z,79.54
2018-04-17T20:18:17.148Z,79.59
2018-04-17T20:20:44.759Z,79.75
2018-04-17T20:23:12.344Z,79.71
2018-04-17T20:25:39.955Z,79.76
2018-04-17T20:28:07.525Z,79.87
2018-04-17T20:30:35.078Z,79.95
2018-04-17T20:33:02.689Z,80.04
2018-04-17T20:35:30.263Z,80.09
2018-04-17T20:37:57.846Z,80.18
2018-04-17T20:40:25.441Z,80.41
2018-04-17T20:42:53.007Z,80.62
2018-04-17T20:45:20.591Z,80.70
2018-04-17T20:47:48.269Z,80.74
2018-04-17T20:50:15.851Z,80.62
2018-04-17T20:52:43.428Z,80.53
2018-04-17T20:55:11.357Z,80.56
2018-04-17T20:57:38.925Z,80.63
2018-04-17T21:00:06.520Z,80.71
2018-04-17T21:02:34.112Z,80.81
2018-04-17T21:05:01.676Z,80.80
2018-04-17T21:07:29.234Z,80.77
2018-04-17T21:09:57.124Z,80.76
2018-04-17T21:12:24.713Z,80.73
2018-04-17T21:14:52.315Z,80.75
2018-04-17T21:17:20.024Z,80.83
2018-04-17T21:19:47.578Z,80.86
2018-04-17T21:22:15.150Z,80.87
2018-04-17T21:24:42.801Z,80.88
2018-04-17T21:27:10.778Z,81.00
2018-04-17T21:29:38.329Z,81.09
2018-04-17T21:32:05.924Z,81.15
2018-04-17T21:34:33.480Z,81.21
2018-04-17T21:37:01.095Z,81.43
2018-04-17T21:39:28.702Z,81.56
2018-04-17T21:41:56.261Z,81.71
2018-04-17T21:44:23.836Z,81.83
2018-04-17T21:46:51.391Z,81.94
2018-04-17T21:49:18.950Z,82.04
2018-04-17T21:51:46.527Z,82.07
2018-04-17T21:54:14.073Z,82.21
2018-04-17T21:56:41.943Z,82.29
2018-04-17T21:59:09.618Z,82.41
2018-04-17T22:01:37.173Z,82.38
2018-04-17T22:04:04.721Z,82.33
2018-04-17T22:06:32.332Z,82.29
2018-04-17T22:08:59.881Z,82.28
2018-04-17T22:11:27.451Z,82.12
2018-04-17T22:13:55.032Z,82.02
2018-04-17T22:16:22.607Z,82.00
2018-04-17T22:18:50.147Z,82.05
2018-04-17T22:21:17.769Z,81.99
2018-04-17T22:23:45.347Z,82.08
2018-04-17T22:26:12.918Z,82.09
2018-04-17T22:28:40.535Z,82.25
2018-04-17T22:31:08.126Z,82.30
2018-04-17T22:33:35.710Z,82.44
2018-04-17T22:36:03.338Z,82.49
2018-04-17T22:38:30.968Z,82.39
2018-04-17T22:40:58.564Z,82.19
2018-04-17T22:43:26.280Z,82.17
2018-04-17T22:45:53.890Z,82.18
2018-04-17T22:48:21.924Z,82.22
2018-04-17T22:50:49.528Z,82.24
2018-04-17T22:53:17.112Z,82.27
2018-04-17T22:55:44.703Z,82.12
2018-04-17T22:58:12.835Z,81.99
2018-04-17T23:00:40.389Z,81.92
2018-04-17T23:03:07.960Z,82.06
2018-04-17T23:05:35.558Z,82.05
2018-04-17T23:08:03.110Z,81.85
2018-04-17T23:10:30.656Z,81.88
2018-04-17T23:12:58.417Z,82.07
2018-04-17T23:15:25.979Z,82.25
2018-04-17T23:17:53.539Z,82.30
2018-04-17T23:20:21.268Z,82.27
2018-04-17T23:22:48.819Z,82.24
2018-04-17T23:25:16.375Z,82.23
2018-04-17T23:27:43.951Z,82.25
2018-04-17T23:30:11.519Z,82.31
2018-04-17T23:32:39.063Z,82.35
2018-04-17T23:35:06.638Z,82.46
2018-04-17T23:37:34.185Z,82.50
2018-04-17T23:40:01.738Z,82.53
2018-04-17T23:42:29.388Z,82.53
2018-04-17T23:44:56.966Z,82.45
2018-04-17T23:47:24.517Z,82.40
2018-04-17T23:49:52.198Z,82.45
2018-04-17T23:52:19.769Z,82.35
2018-04-17T23:54:47.320Z,82.28
2018-04-17T23:57:14.890Z,82.23
2018-04-17T23:59:42.477Z,82.25
